Terminal Aerodrome Forecast
Issued by NWS

Home | Current Version | Previous Version | Text Only | Print | Product List | Glossary On
Versions: 1 2 3 4 5 6 7 8 9 10 11 12 13 14 15 16 17 18 19 20
000
FTUS43 KSGF 270500
TAFBBG
TAF
KBBG 270535Z 2706/2806 30011G20KT P6SM BKN025 OVC040
     FM271000 30010KT P6SM BKN020 OVC035
     FM271500 30005KT P6SM FEW050 SCT250
     FM280000 VRB03KT P6SM SCT250=

USA.gov is the U.S. government's official web portal to all federal, state and local government web resources and services.